Time;durP1;ratioP1;P1;durP2;ratioP2;P2;SDS_P1;SDS_P2;PMS_P1;PMS_P2;Temp;Humidity;BMP_temperature;BMP_pressure;BME280_temperature;BME280_humidity;BME280_pressure;Samples;Min_cycle;Max_cycle;Signal;HPM_P1;HPM_P2
2021/04/25 00:08:21;;;;;;;6.20;5.38;;;14.30;76.30;;;;;;20747571;28;20050;-50
2021/04/25 00:18:24;;;;;;;6.80;4.93;;;14.20;75.40;;;;;;20745907;28;20549;-50
2021/04/25 00:28:26;;;;;;;6.32;5.45;;;14.20;74.80;;;;;;20746966;28;20509;-51
2021/04/25 00:38:28;;;;;;;6.75;4.78;;;14.20;74.30;;;;;;20755852;28;20052;-50
2021/04/25 00:48:30;;;;;;;6.85;5.28;;;14.20;73.80;;;;;;20762178;28;20418;-50
2021/04/25 00:58:33;;;;;;;6.53;4.60;;;14.20;74.00;;;;;;20761515;28;20529;-49
2021/04/25 01:08:35;;;;;;;7.50;5.07;;;14.20;72.50;;;;;;20758890;28;20053;-49
2021/04/25 01:18:41;;;;;;;5.82;4.95;;;14.20;72.90;;;;;;20757824;28;20446;-49
2021/04/25 01:28:44;;;;;;;5.60;3.70;;;14.20;72.70;;;;;;20758997;28;20056;-50
2021/04/25 01:38:49;;;;;;;4.10;3.40;;;14.10;72.10;;;;;;20758252;28;20379;-50
2021/04/25 01:48:57;;;;;;;5.05;2.50;;;14.10;71.10;;;;;;20755909;28;20058;-49
2021/04/25 01:59:06;;;;;;;5.57;2.58;;;14.10;69.40;;;;;;20756718;28;20050;-50
2021/04/25 02:09:13;;;;;;;3.78;2.10;;;14.00;67.80;;;;;;20755241;28;20049;-49
2021/04/25 02:19:20;;;;;;;3.53;2.80;;;13.90;67.20;;;;;;20754775;28;20053;-49
2021/04/25 02:29:27;;;;;;;3.08;2.08;;;13.80;67.00;;;;;;20754209;28;20053;-49
2021/04/25 02:39:32;;;;;;;3.20;2.30;;;13.80;66.30;;;;;;20753473;28;20045;-50
2021/04/25 02:49:33;;;;;;;5.07;2.10;;;13.70;65.50;;;;;;20752225;28;20058;-49
2021/04/25 02:59:34;;;;;;;2.83;1.80;;;13.70;64.50;;;;;;20751843;28;20049;-49
2021/04/25 03:09:36;;;;;;;2.60;2.00;;;13.70;63.70;;;;;;20750818;28;20053;-49
2021/04/25 03:19:38;;;;;;;2.70;1.60;;;13.70;64.00;;;;;;20750263;28;20065;-48
2021/04/25 03:29:40;;;;;;;2.47;1.33;;;13.60;63.60;;;;;;20749398;28;20062;-51
2021/04/25 03:39:47;;;;;;;3.35;1.80;;;13.50;63.40;;;;;;20748564;28;20045;-50
2021/04/25 03:49:53;;;;;;;3.97;1.55;;;13.50;63.40;;;;;;20748457;28;20071;-50
2021/04/25 04:00:00;;;;;;;4.50;1.77;;;13.40;63.70;;;;;;20748884;28;20489;-50
2021/04/25 04:10:13;;;;;;;3.33;1.50;;;13.30;63.80;;;;;;20753382;28;20050;-50
2021/04/25 04:20:21;;;;;;;3.10;1.83;;;13.30;63.70;;;;;;20763863;28;20096;-50
2021/04/25 04:30:31;;;;;;;2.95;1.98;;;13.30;64.00;;;;;;20763153;28;20054;-50
2021/04/25 04:40:52;;;;;;;3.03;2.08;;;13.30;64.30;;;;;;20762687;28;20046;-50
2021/04/25 04:51:13;;;;;;;2.40;1.67;;;13.40;64.60;;;;;;20761750;28;20053;-50
2021/04/25 05:01:28;;;;;;;4.03;1.87;;;13.40;64.70;;;;;;20762175;28;20073;-50
2021/04/25 05:11:40;;;;;;;3.95;2.03;;;13.40;64.80;;;;;;20760394;28;20087;-50
2021/04/25 05:21:54;;;;;;;4.93;1.98;;;13.50;64.70;;;;;;20759593;28;20052;-50
2021/04/25 05:32:05;;;;;;;4.20;1.80;;;13.40;65.40;;;;;;20758585;28;20049;-50
2021/04/25 05:42:10;;;;;;;4.57;2.00;;;13.40;65.20;;;;;;20758414;28;20050;-50
2021/04/25 05:52:18;;;;;;;2.58;1.70;;;13.50;65.20;;;;;;20756167;28;20077;-54
2021/04/25 06:02:23;;;;;;;2.80;1.90;;;13.50;65.00;;;;;;20756464;28;20398;-49
2021/04/25 06:12:26;;;;;;;17.48;12.65;;;13.60;65.00;;;;;;20755682;28;20081;-50
2021/04/25 06:22:29;;;;;;;3.97;1.60;;;13.60;65.00;;;;;;20754616;28;20064;-52
2021/04/25 06:32:32;;;;;;;3.90;1.55;;;13.70;65.00;;;;;;20752799;28;20060;-50
2021/04/25 06:42:39;;;;;;;4.10;2.27;;;13.70;64.40;;;;;;20754016;28;20478;-48
2021/04/25 06:52:46;;;;;;;3.58;2.08;;;13.70;64.60;;;;;;20751611;28;20056;-52
2021/04/25 07:02:51;;;;;;;3.90;1.85;;;13.80;64.20;;;;;;20751497;28;20457;-49
2021/04/25 07:12:53;;;;;;;3.70;2.10;;;13.80;63.80;;;;;;20750822;28;20049;-50
2021/04/25 07:23:00;;;;;;;5.75;1.60;;;13.80;64.10;;;;;;20751258;28;20073;-49
2021/04/25 07:33:10;;;;;;;3.60;1.73;;;14.50;62.30;;;;;;20749253;28;20096;-49
2021/04/25 07:43:16;;;;;;;3.95;1.70;;;15.00;60.40;;;;;;20748652;28;20053;-50
2021/04/25 07:53:26;;;;;;;3.50;1.77;;;15.00;60.60;;;;;;20748076;28;20058;-50
2021/04/25 08:03:37;;;;;;;6.80;2.05;;;15.00;60.30;;;;;;20748088;28;20482;-52
2021/04/25 08:13:48;;;;;;;5.15;1.65;;;15.20;59.40;;;;;;20746701;28;20073;-50
2021/04/25 08:24:09;;;;;;;3.03;1.40;;;15.20;59.40;;;;;;20745643;28;20059;-49
2021/04/25 08:34:31;;;;;;;5.88;1.75;;;15.20;59.40;;;;;;20745392;28;20053;-50
2021/04/25 08:44:45;;;;;;;5.93;2.67;;;15.30;58.80;;;;;;20746455;28;20451;-51
2021/04/25 08:54:58;;;;;;;5.25;2.50;;;15.30;59.60;;;;;;20748302;28;20057;-50
2021/04/25 09:05:14;;;;;;;4.32;2.13;;;15.30;59.90;;;;;;20760534;28;20057;-50
2021/04/25 09:15:34;;;;;;;11.45;3.38;;;15.30;60.00;;;;;;20758519;28;20061;-51
2021/04/25 09:26:05;;;;;;;4.78;2.50;;;15.20;64.20;;;;;;20758860;28;20058;-50
2021/04/25 09:36:10;;;;;;;6.88;2.75;;;15.00;68.40;;;;;;20757717;28;20054;-51
2021/04/25 09:46:18;;;;;;;6.28;3.20;;;14.80;67.90;;;;;;20758480;28;20046;-51
2021/04/25 09:56:31;;;;;;;4.25;2.50;;;14.70;68.00;;;;;;20755416;28;20056;-49
2021/04/25 10:06:53;;;;;;;3.72;2.28;;;14.80;67.80;;;;;;20755221;28;20050;-50
2021/04/25 10:16:56;;;;;;;4.95;2.40;;;14.70;67.80;;;;;;20755180;28;20566;-49
2021/04/25 10:27:03;;;;;;;7.32;2.22;;;14.70;67.60;;;;;;20756870;28;20050;-51
2021/04/25 10:37:11;;;;;;;6.68;3.05;;;14.70;66.20;;;;;;20753173;28;20070;-50
2021/04/25 10:47:15;;;;;;;8.45;5.15;;;14.70;65.60;;;;;;20752108;28;20065;-52
2021/04/25 10:57:19;;;;;;;8.50;4.05;;;14.70;67.20;;;;;;20751914;28;20057;-49
2021/04/25 11:07:33;;;;;;;5.50;3.50;;;14.80;68.00;;;;;;20752486;28;20148;-50
2021/04/25 11:17:36;;;;;;;8.05;4.10;;;14.70;68.10;;;;;;20749741;28;20058;-51
2021/04/25 11:27:42;;;;;;;5.97;3.33;;;14.70;68.70;;;;;;20751111;28;20081;-49
2021/04/25 11:37:45;;;;;;;4.70;3.30;;;14.70;68.80;;;;;;20748600;28;20066;-49
2021/04/25 11:47:55;;;;;;;9.33;6.43;;;14.70;68.50;;;;;;20748725;28;20096;-51
2021/04/25 11:58:01;;;;;;;6.20;3.83;;;14.70;68.10;;;;;;20748355;28;20050;-48
2021/04/25 12:08:08;;;;;;;8.10;4.88;;;14.80;67.60;;;;;;20746754;28;20065;-50
2021/04/25 12:18:12;;;;;;;8.88;3.90;;;14.80;67.40;;;;;;20745385;28;20513;-50
2021/04/25 12:28:17;;;;;;;7.33;4.20;;;14.70;67.90;;;;;;20748138;28;20056;-49
2021/04/25 12:38:20;;;;;;;8.27;4.93;;;14.60;69.90;;;;;;20763564;28;20089;-51
2021/04/25 12:48:30;;;;;;;6.53;4.30;;;14.50;70.20;;;;;;20762199;28;20049;-49
2021/04/25 12:58:32;;;;;;;8.23;5.40;;;14.60;70.30;;;;;;20761954;28;20070;-50
2021/04/25 13:08:35;;;;;;;11.15;6.38;;;14.50;70.80;;;;;;20759493;28;20050;-51
2021/04/25 13:18:37;;;;;;;9.30;5.25;;;14.40;72.00;;;;;;20758776;28;20070;-50
2021/04/25 13:28:40;;;;;;;9.55;4.45;;;14.40;72.20;;;;;;20759382;28;20505;-51
2021/04/25 13:38:44;;;;;;;7.63;5.10;;;14.40;71.30;;;;;;20759075;28;20057;-50
2021/04/25 13:48:47;;;;;;;10.13;5.13;;;14.30;72.40;;;;;;20756452;28;20057;-51
2021/04/25 13:58:50;;;;;;;13.23;9.32;;;14.20;73.50;;;;;;20757661;28;20049;-50
2021/04/25 14:08:53;;;;;;;7.72;4.80;;;14.00;74.20;;;;;;20756835;28;20148;-50
2021/04/25 14:18:57;;;;;;;8.70;5.37;;;13.90;75.20;;;;;;20753776;28;20177;-50
2021/04/25 14:28:59;;;;;;;7.50;5.18;;;13.80;75.60;;;;;;20755509;28;20139;-50
2021/04/25 14:39:01;;;;;;;9.38;5.95;;;13.90;75.70;;;;;;20754982;28;20046;-51
2021/04/25 14:49:04;;;;;;;11.20;7.00;;;13.80;75.90;;;;;;20753750;28;20485;-50
2021/04/25 14:59:08;;;;;;;23.38;17.35;;;13.90;76.50;;;;;;20753326;28;20049;-50
2021/04/25 15:09:11;;;;;;;11.75;7.20;;;13.80;76.40;;;;;;20751156;28;20058;-51
2021/04/25 15:19:14;;;;;;;19.38;14.88;;;13.70;77.50;;;;;;20751997;28;20427;-51
2021/04/25 15:29:16;;;;;;;16.95;13.35;;;13.70;77.80;;;;;;20750065;28;20144;-52
2021/04/25 15:39:19;;;;;;;7.72;6.65;;;13.70;78.10;;;;;;20749739;28;20056;-49
2021/04/25 15:49:23;;;;;;;12.53;8.50;;;13.70;77.90;;;;;;20747280;28;20104;-50
2021/04/25 15:59:26;;;;;;;6.93;5.05;;;13.50;78.30;;;;;;20748218;28;20084;-51
2021/04/25 16:09:29;;;;;;;8.70;5.27;;;13.50;78.00;;;;;;20747345;28;20065;-51
2021/04/25 16:19:31;;;;;;;8.85;6.30;;;13.50;78.30;;;;;;20747927;28;20137;-52
2021/04/25 16:29:33;;;;;;;7.10;4.97;;;13.30;79.00;;;;;;20746951;28;20076;-50
2021/04/25 16:39:35;;;;;;;5.13;4.13;;;13.40;78.20;;;;;;20747330;28;20058;-51
2021/04/25 16:49:38;;;;;;;8.43;5.03;;;13.50;77.40;;;;;;20746654;28;20058;-51
2021/04/25 16:59:40;;;;;;;8.15;5.25;;;13.50;76.80;;;;;;20746754;28;20133;-52
2021/04/25 17:09:41;;;;;;;8.73;6.43;;;13.40;77.70;;;;;;20745551;28;20057;-51
2021/04/25 17:19:43;;;;;;;6.55;4.22;;;13.50;76.90;;;;;;20754250;28;20073;-51
2021/04/25 17:29:45;;;;;;;6.55;4.25;;;13.40;76.90;;;;;;20774359;28;20097;-51
2021/04/25 17:39:47;;;;;;;5.45;4.32;;;13.30;77.10;;;;;;20758732;28;20137;-52
2021/04/25 17:49:49;;;;;;;8.32;5.65;;;13.30;77.50;;;;;;20741019;28;20088;-51
2021/04/25 17:59:51;;;;;;;5.57;3.80;;;13.30;77.90;;;;;;20757449;28;20483;-50
2021/04/25 18:09:53;;;;;;;8.43;5.13;;;13.30;77.10;;;;;;20770907;28;20138;-51
2021/04/25 18:19:55;;;;;;;7.30;4.30;;;13.40;77.30;;;;;;20770377;28;20046;-51
2021/04/25 18:29:57;;;;;;;7.70;4.88;;;13.30;77.40;;;;;;20753936;28;20052;-51
2021/04/25 18:39:59;;;;;;;6.75;4.47;;;13.30;78.10;;;;;;20754088;28;20049;-50
2021/04/25 18:50:02;;;;;;;8.20;4.70;;;13.30;78.40;;;;;;20753111;28;20521;-52
2021/04/25 19:00:31;;;;;;;9.27;5.38;;;13.40;78.30;;;;;;20752765;28;20054;-51
2021/04/25 19:10:33;;;;;;;10.80;5.88;;;13.50;78.10;;;;;;20751913;28;20089;-51
2021/04/25 19:20:36;;;;;;;12.77;6.47;;;13.40;78.60;;;;;;20750930;28;20081;-52
2021/04/25 19:30:38;;;;;;;7.22;5.25;;;13.40;79.00;;;;;;20750221;28;20057;-52
2021/04/25 19:40:40;;;;;;;9.88;5.60;;;13.40;78.80;;;;;;20749784;28;20058;-54
2021/04/25 19:50:45;;;;;;;7.82;4.90;;;13.50;78.60;;;;;;20748278;28;20061;-49
2021/04/25 20:00:50;;;;;;;9.88;5.10;;;13.50;78.70;;;;;;20748823;28;20057;-50
2021/04/25 20:10:54;;;;;;;;;;;13.40;78.70;;;;;;20748128;28;20516;-51
2021/04/25 20:20:56;;;;;;;7.57;4.47;;;13.30;78.30;;;;;;20747455;28;20373;-50
2021/04/25 20:31:02;;;;;;;9.57;5.20;;;13.30;78.80;;;;;;20747021;28;20486;-50
2021/04/25 20:41:06;;;;;;;8.02;4.60;;;13.30;78.40;;;;;;20746886;28;20050;-51
2021/04/25 20:51:07;;;;;;;7.32;5.70;;;13.40;78.50;;;;;;20749590;28;20084;-51
2021/04/25 21:01:09;;;;;;;11.43;7.15;;;13.50;78.00;;;;;;20776670;28;20128;-50
2021/04/25 21:11:11;;;;;;;14.18;8.02;;;13.60;78.40;;;;;;20760201;28;20064;-51
2021/04/25 21:21:14;;;;;;;8.20;5.90;;;13.20;80.00;;;;;;20759553;28;20052;-51
2021/04/25 21:31:16;;;;;;;9.10;5.43;;;13.10;79.80;;;;;;20757492;28;20517;-51
2021/04/25 21:41:18;;;;;;;10.07;6.10;;;13.20;79.70;;;;;;20756446;28;20057;-51
2021/04/25 21:51:20;;;;;;;10.60;7.10;;;13.20;79.30;;;;;;20757222;28;20058;-51
2021/04/25 22:01:22;;;;;;;11.60;8.07;;;13.40;79.10;;;;;;20756230;28;20058;-50
2021/04/25 22:11:24;;;;;;;11.95;8.93;;;13.50;79.10;;;;;;20756157;28;20061;-50
2021/04/25 22:21:26;;;;;;;15.07;9.68;;;13.50;78.80;;;;;;20755109;28;20054;-50
2021/04/25 22:31:28;;;;;;;14.98;9.00;;;13.60;78.70;;;;;;20755159;28;20057;-50
2021/04/25 22:41:29;;;;;;;14.38;10.32;;;13.70;78.90;;;;;;20754964;28;20064;-50
2021/04/25 22:51:31;;;;;;;11.18;8.43;;;13.70;78.80;;;;;;20753937;28;20519;-49
2021/04/25 23:01:33;;;;;;;17.88;11.07;;;13.70;78.90;;;;;;20753458;28;20054;-49
2021/04/25 23:11:35;;;;;;;18.10;11.05;;;13.70;79.30;;;;;;20752114;28;20089;-50
2021/04/25 23:21:37;;;;;;;15.60;12.48;;;13.70;79.50;;;;;;20751742;28;20406;-50
2021/04/25 23:31:39;;;;;;;17.25;14.07;;;13.70;79.20;;;;;;20751511;28;20525;-50
2021/04/25 23:41:41;;;;;;;18.52;13.45;;;13.70;79.60;;;;;;20750799;28;20108;-50
2021/04/25 23:51:42;;;;;;;14.80;13.18;;;13.80;79.40;;;;;;20750212;28;20049;-50
